Time;durP1;ratioP1;P1;durP2;ratioP2;P2;SDS_P1;SDS_P2;PMS_P1;PMS_P2;Temp;Humidity;BMP_temperature;BMP_pressure;BME280_temperature;BME280_humidity;BME280_pressure;Samples;Min_cycle;Max_cycle;Signal;HPM_P1;HPM_P2
2020/12/06 00:00:39;;;;;;;14.38;10.45;;;4.60;1.00;;;;;;5067316;28;20218;-72
2020/12/06 00:03:07;;;;;;;15.45;10.93;;;4.60;1.00;;;;;;5066121;28;20279;-73
2020/12/06 00:05:35;;;;;;;13.98;9.40;;;4.60;1.00;;;;;;5064901;28;20241;-73
2020/12/06 00:08:02;;;;;;;15.05;11.05;;;4.60;1.00;;;;;;5065278;28;20215;-73
2020/12/06 00:10:29;;;;;;;15.57;10.38;;;4.70;1.00;;;;;;5063126;28;20240;-73
2020/12/06 00:12:56;;;;;;;16.83;13.32;;;4.70;1.00;;;;;;5063021;28;20499;-75
2020/12/06 00:15:24;;;;;;;17.65;10.05;;;4.80;1.00;;;;;;5065321;28;20232;-75
2020/12/06 00:17:51;;;;;;;13.65;10.40;;;4.90;1.00;;;;;;5067984;28;20240;-75
2020/12/06 00:20:18;;;;;;;15.65;10.60;;;4.90;1.00;;;;;;5062215;28;20265;-75
2020/12/06 00:22:46;;;;;;;12.82;10.60;;;4.90;1.00;;;;;;5066905;28;20215;-75
2020/12/06 00:25:14;;;;;;;14.88;11.77;;;4.90;1.00;;;;;;5065228;28;20641;-75
2020/12/06 00:27:41;;;;;;;12.52;10.43;;;5.00;1.00;;;;;;5064816;28;20210;-74
2020/12/06 00:30:10;;;;;;;12.15;10.50;;;5.00;1.00;;;;;;5063591;28;20224;-76
2020/12/06 00:32:37;;;;;;;16.83;10.68;;;5.00;1.00;;;;;;5065318;28;20225;-76
2020/12/06 00:35:05;;;;;;;15.63;12.00;;;5.00;1.00;;;;;;5063781;28;20225;-76
2020/12/06 00:37:33;;;;;;;12.52;9.40;;;5.00;1.00;;;;;;5067629;28;20225;-77
2020/12/06 00:40:01;;;;;;;14.90;10.02;;;5.00;1.00;;;;;;5063182;28;20215;-76
2020/12/06 00:42:28;;;;;;;14.80;9.55;;;5.00;1.00;;;;;;5065112;28;20306;-76
2020/12/06 00:44:55;;;;;;;15.68;11.38;;;4.90;1.00;;;;;;5064490;28;20248;-74
2020/12/06 00:47:22;;;;;;;17.30;11.18;;;5.00;1.00;;;;;;5064732;28;20288;-76
2020/12/06 00:49:49;;;;;;;14.75;10.95;;;5.00;1.00;;;;;;5064474;28;20213;-75
2020/12/06 00:52:16;;;;;;;14.55;11.23;;;5.00;1.00;;;;;;5063249;28;20224;-76
2020/12/06 00:54:44;;;;;;;18.20;10.95;;;5.00;1.00;;;;;;5062391;28;20274;-75
2020/12/06 00:57:12;;;;;;;17.17;11.50;;;5.00;1.00;;;;;;5059358;28;20935;-77
2020/12/06 00:59:39;;;;;;;15.30;10.63;;;4.90;1.00;;;;;;5064155;28;20210;-76
2020/12/06 01:02:06;;;;;;;18.75;11.70;;;5.00;1.00;;;;;;5064650;28;20745;-74
2020/12/06 01:04:33;;;;;;;17.98;11.27;;;4.90;1.00;;;;;;5062035;28;20811;-74
2020/12/06 01:07:01;;;;;;;19.17;13.93;;;4.90;1.00;;;;;;5064069;28;20554;-77
2020/12/06 01:09:29;;;;;;;15.40;10.43;;;5.00;1.00;;;;;;5064154;28;20220;-75
2020/12/06 01:11:58;;;;;;;17.58;11.70;;;5.00;1.00;;;;;;5055008;28;20212;-75
2020/12/06 01:14:26;;;;;;;17.15;11.95;;;5.00;1.00;;;;;;5057717;28;20223;-76
2020/12/06 01:16:53;;;;;;;13.68;10.23;;;5.00;1.00;;;;;;5062749;28;20255;-76
2020/12/06 01:19:20;;;;;;;15.05;11.65;;;5.00;1.00;;;;;;5065716;28;20211;-75
2020/12/06 01:21:52;;;;;;;15.65;10.55;;;4.90;1.00;;;;;;5061298;28;20692;-76
2020/12/06 01:24:19;;;;;;;13.27;10.18;;;4.90;1.00;;;;;;5062737;28;20209;-76
2020/12/06 01:26:47;;;;;;;18.15;11.60;;;4.90;1.00;;;;;;5063317;28;20238;-75
2020/12/06 01:29:14;;;;;;;15.27;11.40;;;4.90;1.00;;;;;;5064891;28;20209;-75
2020/12/06 01:31:45;;;;;;;15.90;11.53;;;5.00;1.00;;;;;;5062989;28;21066;-75
2020/12/06 01:34:12;;;;;;;16.98;11.88;;;5.00;1.00;;;;;;5059064;28;20481;-75
2020/12/06 01:36:39;;;;;;;16.02;11.07;;;5.00;1.00;;;;;;5057188;28;20236;-75
2020/12/06 01:39:07;;;;;;;14.85;10.00;;;5.00;1.00;;;;;;5058723;28;20267;-76
2020/12/06 01:41:34;;;;;;;16.98;10.82;;;5.00;1.00;;;;;;5055833;28;20300;-75
2020/12/06 01:44:03;;;;;;;15.02;10.18;;;5.00;1.00;;;;;;5058346;28;20275;-74
2020/12/06 01:46:32;;;;;;;13.70;9.80;;;5.10;1.00;;;;;;5055861;28;20915;-74
2020/12/06 01:49:00;;;;;;;16.85;10.90;;;5.00;1.00;;;;;;5053810;28;20776;-75
2020/12/06 01:51:27;;;;;;;15.40;10.40;;;5.00;1.00;;;;;;5060192;28;20227;-75
2020/12/06 01:53:56;;;;;;;14.23;10.55;;;5.00;1.00;;;;;;5069436;28;20701;-73
2020/12/06 01:56:23;;;;;;;16.23;11.68;;;5.00;1.00;;;;;;5059747;28;20231;-75
2020/12/06 01:58:50;;;;;;;13.85;9.65;;;5.00;1.00;;;;;;5057280;28;21010;-75
2020/12/06 02:01:17;;;;;;;13.50;10.88;;;5.00;1.00;;;;;;5058277;28;20848;-75
2020/12/06 02:03:45;;;;;;;13.55;10.95;;;5.00;1.00;;;;;;5059136;28;20827;-75
2020/12/06 02:06:13;;;;;;;13.82;11.07;;;5.00;1.00;;;;;;5055820;28;20736;-75
2020/12/06 02:08:40;;;;;;;13.23;11.30;;;5.00;1.00;;;;;;5057502;28;20595;-74
2020/12/06 02:11:07;;;;;;;14.43;11.75;;;5.00;1.00;;;;;;5057791;28;20644;-75
2020/12/06 02:13:34;;;;;;;14.25;10.98;;;5.00;1.00;;;;;;5057170;28;20817;-75
2020/12/06 02:16:01;;;;;;;19.00;12.43;;;5.00;1.00;;;;;;5054355;28;20824;-74
2020/12/06 02:18:28;;;;;;;14.50;10.90;;;5.00;1.00;;;;;;5058414;28;20214;-74
2020/12/06 02:21:00;;;;;;;17.65;11.77;;;5.00;1.00;;;;;;5056423;28;20212;-75
2020/12/06 02:23:28;;;;;;;15.93;11.10;;;4.90;1.00;;;;;;5051585;28;20222;-74
2020/12/06 02:25:55;;;;;;;14.48;10.95;;;4.90;1.00;;;;;;5056657;28;20237;-73
2020/12/06 02:28:22;;;;;;;16.40;11.75;;;4.90;1.00;;;;;;5056373;28;20669;-74
2020/12/06 02:30:49;;;;;;;14.98;11.05;;;5.00;1.00;;;;;;5055065;28;20227;-73
2020/12/06 02:33:16;;;;;;;13.93;10.30;;;4.90;1.00;;;;;;5055133;28;20211;-73
2020/12/06 02:35:43;;;;;;;13.73;10.63;;;4.80;1.00;;;;;;5059425;28;20232;-74
2020/12/06 02:38:11;;;;;;;18.50;10.90;;;4.80;1.00;;;;;;5058730;28;20237;-74
2020/12/06 02:40:39;;;;;;;14.05;10.75;;;4.80;1.00;;;;;;5060519;28;20212;-73
2020/12/06 02:43:06;;;;;;;14.13;10.65;;;4.80;1.00;;;;;;5060522;28;20286;-74
2020/12/06 02:45:33;;;;;;;15.32;10.25;;;4.80;1.00;;;;;;5061678;28;20256;-74
2020/12/06 02:48:00;;;;;;;17.05;11.02;;;4.90;1.00;;;;;;5058173;28;20213;-74
2020/12/06 02:50:28;;;;;;;16.40;10.98;;;4.90;1.00;;;;;;5055935;28;20225;-74
2020/12/06 02:52:57;;;;;;;13.55;10.38;;;4.90;1.00;;;;;;5057606;28;20268;-73
2020/12/06 02:55:26;;;;;;;14.15;10.68;;;4.90;1.00;;;;;;5058407;28;20324;-73
2020/12/06 02:57:53;;;;;;;11.10;9.25;;;4.90;1.00;;;;;;5060668;28;20229;-74
2020/12/06 03:00:21;;;;;;;15.90;11.57;;;4.90;1.00;;;;;;5056554;28;20228;-74
2020/12/06 03:02:48;;;;;;;16.25;11.48;;;4.90;1.00;;;;;;5059121;28;20624;-74
2020/12/06 03:05:15;;;;;;;14.65;10.57;;;4.90;1.00;;;;;;5061634;28;20301;-74
2020/12/06 03:07:42;;;;;;;14.80;10.40;;;4.90;1.00;;;;;;5059516;28;20207;-74
2020/12/06 03:10:09;;;;;;;14.95;12.32;;;4.90;1.00;;;;;;5060495;28;20306;-73
2020/12/06 03:12:37;;;;;;;11.48;8.82;;;4.90;1.00;;;;;;5060433;28;20224;-73
2020/12/06 03:15:04;;;;;;;15.43;11.82;;;4.90;1.00;;;;;;5060857;28;22072;-74
2020/12/06 03:17:31;;;;;;;11.38;9.85;;;5.00;1.00;;;;;;5061747;28;20572;-73
2020/12/06 03:19:59;;;;;;;12.85;10.75;;;5.00;1.00;;;;;;5060441;28;20266;-72
2020/12/06 03:22:32;;;;;;;14.02;10.25;;;5.00;1.00;;;;;;5060228;28;20217;-73
2020/12/06 03:25:01;;;;;;;13.00;10.93;;;5.00;1.00;;;;;;5060856;28;20737;-73
2020/12/06 03:27:28;;;;;;;14.55;11.13;;;5.00;1.00;;;;;;5062103;28;20215;-73
2020/12/06 03:29:57;;;;;;;16.63;10.75;;;5.00;1.00;;;;;;5059383;28;20294;-72
2020/12/06 03:32:24;;;;;;;12.15;10.85;;;5.00;1.00;;;;;;5058709;28;20216;-73
2020/12/06 03:34:51;;;;;;;14.98;11.32;;;5.00;1.00;;;;;;5059327;28;20835;-73
2020/12/06 03:37:18;;;;;;;16.40;11.80;;;4.90;1.00;;;;;;5060378;28;20238;-72
2020/12/06 03:39:45;;;;;;;14.77;11.52;;;4.90;1.00;;;;;;5061750;28;20279;-73
2020/12/06 03:42:12;;;;;;;15.38;12.13;;;4.90;1.00;;;;;;5057630;28;20268;-73
2020/12/06 03:44:39;;;;;;;14.70;11.50;;;4.90;1.00;;;;;;5059379;28;20228;-72
2020/12/06 03:47:07;;;;;;;15.40;11.98;;;4.90;1.00;;;;;;5058918;28;20247;-74
2020/12/06 03:49:34;;;;;;;16.05;11.00;;;4.90;1.00;;;;;;5070253;28;20239;-73
2020/12/06 03:52:02;;;;;;;16.13;11.60;;;5.00;1.00;;;;;;5060820;28;20691;-73
2020/12/06 03:54:29;;;;;;;15.48;12.23;;;5.00;1.00;;;;;;5072569;28;20224;-72
2020/12/06 03:56:56;;;;;;;15.77;12.27;;;5.00;1.00;;;;;;5060678;28;20260;-72
2020/12/06 03:59:23;;;;;;;15.98;12.27;;;5.00;1.00;;;;;;5061168;28;20209;-73
2020/12/06 04:01:50;;;;;;;19.75;14.40;;;5.00;1.00;;;;;;5060420;28;20309;-72
2020/12/06 04:04:18;;;;;;;19.58;15.52;;;5.00;1.00;;;;;;5058429;28;20573;-72
2020/12/06 04:06:45;;;;;;;19.23;13.88;;;4.90;1.00;;;;;;5060768;28;20278;-73
2020/12/06 04:09:13;;;;;;;21.52;14.40;;;4.90;1.00;;;;;;5060113;28;20232;-73
2020/12/06 04:11:40;;;;;;;22.35;14.88;;;4.90;1.00;;;;;;5065746;28;20219;-73
2020/12/06 04:14:07;;;;;;;18.33;13.57;;;4.90;1.00;;;;;;5067239;28;20226;-73
2020/12/06 04:16:34;;;;;;;23.42;15.98;;;4.90;1.00;;;;;;5066140;28;20289;-73
2020/12/06 04:19:01;;;;;;;21.25;14.93;;;4.80;1.00;;;;;;5068682;28;20220;-72
2020/12/06 04:21:30;;;;;;;26.15;16.33;;;4.80;1.00;;;;;;5067446;28;20736;-72
2020/12/06 04:23:57;;;;;;;20.83;15.25;;;4.80;1.00;;;;;;5068169;28;20675;-73
2020/12/06 04:26:24;;;;;;;21.52;15.00;;;4.80;1.00;;;;;;5067489;28;20593;-73
2020/12/06 04:28:51;;;;;;;22.33;15.50;;;4.80;1.00;;;;;;5065706;28;20573;-72
2020/12/06 04:31:19;;;;;;;20.42;14.35;;;4.80;1.00;;;;;;5064711;28;20247;-73
2020/12/06 04:33:46;;;;;;;22.77;16.52;;;4.70;1.00;;;;;;5072910;28;20221;-73
2020/12/06 04:36:13;;;;;;;19.55;14.32;;;4.80;1.00;;;;;;5064380;28;20228;-73
2020/12/06 04:38:41;;;;;;;23.15;15.00;;;4.90;1.00;;;;;;5066283;28;20233;-72
2020/12/06 04:41:08;;;;;;;24.13;15.60;;;4.90;1.00;;;;;;5065241;28;20270;-73
2020/12/06 04:43:35;;;;;;;23.23;16.45;;;4.90;1.00;;;;;;5070487;28;20221;-72
2020/12/06 04:46:02;;;;;;;23.88;16.60;;;4.90;1.00;;;;;;5068532;28;20230;-73
2020/12/06 04:48:44;;;;;;;24.55;16.30;;;4.90;1.00;;;;;;5065604;28;20216;-73
2020/12/06 04:51:14;;;;;;;22.85;15.15;;;4.90;1.00;;;;;;5064503;28;20218;-73
2020/12/06 04:53:47;;;;;;;25.30;15.88;;;4.80;1.00;;;;;;5066578;28;20222;-74
2020/12/06 04:56:19;;;;;;;24.88;16.85;;;4.90;1.00;;;;;;5059409;28;20259;-73
2020/12/06 04:58:48;;;;;;;26.08;16.73;;;4.90;1.00;;;;;;5067167;28;20732;-72
2020/12/06 05:01:18;;;;;;;31.80;16.42;;;4.80;1.00;;;;;;5066068;28;20220;-73
2020/12/06 05:03:52;;;;;;;50.42;16.92;;;4.80;1.00;;;;;;5059645;28;20274;-72
2020/12/06 05:06:19;;;;;;;48.72;17.70;;;4.80;1.00;;;;;;5064013;28;20237;-73
2020/12/06 05:08:47;;;;;;;23.05;15.35;;;4.80;1.00;;;;;;5071532;28;20232;-73
2020/12/06 05:11:16;;;;;;;21.38;14.82;;;4.80;1.00;;;;;;5069733;28;20282;-73
2020/12/06 05:13:43;;;;;;;20.48;14.15;;;4.70;1.00;;;;;;5060483;28;20232;-72
2020/12/06 05:16:11;;;;;;;36.75;15.80;;;4.70;1.00;;;;;;5061472;28;20746;-72
2020/12/06 05:18:38;;;;;;;28.25;15.10;;;4.60;1.00;;;;;;5063027;28;20289;-71
2020/12/06 05:21:05;;;;;;;32.55;15.60;;;4.60;1.00;;;;;;5066142;28;20316;-73
2020/12/06 05:23:32;;;;;;;22.00;14.00;;;4.60;1.00;;;;;;5063235;28;20256;-73
2020/12/06 05:26:00;;;;;;;25.55;14.63;;;4.60;1.00;;;;;;5065008;28;20227;-73
2020/12/06 05:28:27;;;;;;;26.25;15.60;;;4.60;1.00;;;;;;5060088;28;20217;-73
2020/12/06 05:31:00;;;;;;;27.23;17.00;;;4.60;1.00;;;;;;5054580;28;20218;-72
2020/12/06 05:33:29;;;;;;;23.65;15.98;;;4.50;1.00;;;;;;5058647;28;20273;-73
2020/12/06 05:36:00;;;;;;;28.65;17.15;;;4.50;1.00;;;;;;5063286;28;20810;-73
2020/12/06 05:38:27;;;;;;;27.42;16.77;;;4.50;1.00;;;;;;5062055;28;20247;-73
2020/12/06 05:40:58;;;;;;;26.88;16.10;;;4.50;1.00;;;;;;5064109;28;20232;-72
2020/12/06 05:43:28;;;;;;;25.55;16.48;;;4.50;1.00;;;;;;5055090;28;20768;-74
2020/12/06 05:46:05;;;;;;;27.38;15.32;;;4.40;1.00;;;;;;5066250;28;20228;-72
2020/12/06 05:48:32;;;;;;;25.73;15.40;;;4.40;1.00;;;;;;5062609;28;20207;-73
2020/12/06 05:51:01;;;;;;;23.90;15.25;;;4.40;1.00;;;;;;5058482;28;20290;-73
2020/12/06 05:53:29;;;;;;;27.52;17.23;;;4.40;1.00;;;;;;5063986;28;20221;-74
2020/12/06 05:56:04;;;;;;;27.17;17.05;;;4.40;1.00;;;;;;5062011;28;20279;-70
2020/12/06 05:58:33;;;;;;;24.67;14.80;;;4.40;1.00;;;;;;5057591;28;20237;-73
2020/12/06 06:01:01;;;;;;;22.50;13.88;;;4.40;1.00;;;;;;5063372;28;20209;-73
2020/12/06 06:03:32;;;;;;;25.77;15.18;;;4.40;1.00;;;;;;5063290;28;20224;-74
2020/12/06 06:06:02;;;;;;;27.42;15.82;;;4.50;1.00;;;;;;5064641;28;20718;-73
2020/12/06 06:08:36;;;;;;;27.00;16.30;;;4.50;1.00;;;;;;5062843;28;20727;-73
2020/12/06 06:11:17;;;;;;;27.98;15.07;;;4.50;1.00;;;;;;5066986;28;20223;-73
2020/12/06 06:13:51;;;;;;;25.25;15.85;;;4.50;1.00;;;;;;5069245;28;20681;-73
2020/12/06 06:16:20;;;;;;;27.30;16.02;;;4.50;1.00;;;;;;5064865;28;20248;-74
2020/12/06 06:18:49;;;;;;;28.83;17.75;;;4.50;1.00;;;;;;5064039;28;20286;-74
2020/12/06 06:21:18;;;;;;;27.60;16.60;;;4.50;1.00;;;;;;5060875;28;20209;-73
2020/12/06 06:23:48;;;;;;;26.75;13.90;;;4.50;1.00;;;;;;5074441;28;20227;-73
2020/12/06 06:26:17;;;;;;;28.88;15.55;;;4.40;1.00;;;;;;5070457;28;20242;-75
2020/12/06 06:28:45;;;;;;;33.35;17.67;;;4.40;1.00;;;;;;5065425;28;20218;-74
2020/12/06 06:31:15;;;;;;;28.45;16.85;;;4.40;1.00;;;;;;5062883;28;20641;-74
2020/12/06 06:33:42;;;;;;;28.45;15.40;;;4.40;1.00;;;;;;5063169;28;20216;-74
2020/12/06 06:36:10;;;;;;;28.55;16.90;;;4.40;1.00;;;;;;5066149;28;20237;-73
2020/12/06 06:38:39;;;;;;;25.17;15.25;;;4.50;1.00;;;;;;5066329;28;20260;-73
2020/12/06 06:41:07;;;;;;;28.25;15.65;;;4.40;1.00;;;;;;5066517;28;20303;-73
2020/12/06 06:43:36;;;;;;;27.40;15.75;;;4.40;1.00;;;;;;5069689;28;20275;-73
2020/12/06 06:46:13;;;;;;;26.40;16.27;;;4.50;1.00;;;;;;5067043;28;20244;-73
2020/12/06 06:48:41;;;;;;;30.77;16.85;;;4.50;1.00;;;;;;5064031;28;20838;-73
2020/12/06 06:51:08;;;;;;;30.88;17.55;;;4.50;1.00;;;;;;5062161;28;20218;-73
2020/12/06 06:53:39;;;;;;;28.77;15.40;;;4.50;1.00;;;;;;5066201;28;20261;-73
2020/12/06 06:56:09;;;;;;;24.42;12.10;;;4.50;1.00;;;;;;5065462;28;20248;-73
2020/12/06 06:58:37;;;;;;;27.20;13.75;;;4.50;1.00;;;;;;5067140;28;20235;-73
2020/12/06 07:01:21;;;;;;;27.92;15.85;;;4.50;1.00;;;;;;5063321;28;20273;-73
2020/12/06 07:03:50;;;;;;;36.58;16.55;;;4.40;1.00;;;;;;5069013;28;20222;-73
2020/12/06 07:06:48;;;;;;;26.10;14.40;;;4.40;1.00;;;;;;5070326;28;20239;-72
2020/12/06 07:09:21;;;;;;;24.67;13.20;;;4.40;1.00;;;;;;5060421;28;20254;-73
2020/12/06 07:11:48;;;;;;;29.02;14.45;;;4.30;1.00;;;;;;5058459;28;20209;-73
2020/12/06 07:14:16;;;;;;;27.85;14.30;;;4.30;1.00;;;;;;5060778;28;20217;-73
2020/12/06 07:16:43;;;;;;;24.52;13.05;;;4.30;1.00;;;;;;5061620;28;20262;-73
2020/12/06 07:19:11;;;;;;;30.90;14.30;;;4.40;1.00;;;;;;5064260;28;20263;-72
2020/12/06 07:21:38;;;;;;;29.88;14.23;;;4.40;1.00;;;;;;5069988;28;20758;-74
2020/12/06 07:24:05;;;;;;;29.30;14.43;;;4.50;1.00;;;;;;5063219;28;20847;-73
2020/12/06 07:26:33;;;;;;;26.83;13.98;;;4.50;1.00;;;;;;5058443;28;20237;-73
2020/12/06 07:29:00;;;;;;;27.70;13.85;;;4.50;1.00;;;;;;5058542;28;20287;-74
2020/12/06 07:31:28;;;;;;;28.75;14.15;;;4.50;1.00;;;;;;5060558;28;20220;-74
2020/12/06 07:33:55;;;;;;;25.42;13.75;;;4.60;1.00;;;;;;5065805;28;20213;-73
2020/12/06 07:36:24;;;;;;;32.05;15.02;;;4.60;1.00;;;;;;5064823;28;20228;-73
2020/12/06 07:38:51;;;;;;;26.63;12.40;;;4.50;1.00;;;;;;5064985;28;20236;-73
2020/12/06 07:41:18;;;;;;;22.92;13.52;;;4.40;1.00;;;;;;5063601;28;20266;-72
2020/12/06 07:43:45;;;;;;;28.20;12.70;;;4.20;1.00;;;;;;5069091;28;20220;-73
2020/12/06 07:46:17;;;;;;;27.83;15.02;;;4.20;1.00;;;;;;5067435;28;20254;-72
2020/12/06 07:48:48;;;;;;;27.85;15.23;;;4.20;1.00;;;;;;5062423;28;20222;-73
2020/12/06 07:51:25;;;;;;;24.75;13.00;;;4.20;1.00;;;;;;5060626;28;20219;-73
2020/12/06 07:53:54;;;;;;;30.52;14.60;;;4.30;1.00;;;;;;5066304;28;20208;-73
2020/12/06 07:56:22;;;;;;;24.33;13.90;;;4.30;1.00;;;;;;5063931;28;20716;-74
2020/12/06 07:59:12;;;;;;;22.58;12.90;;;4.20;1.00;;;;;;5065779;28;20649;-73
2020/12/06 08:01:40;;;;;;;23.35;13.70;;;4.00;1.00;;;;;;5065731;28;20206;-74
2020/12/06 08:04:22;;;;;;;28.00;14.48;;;3.90;1.00;;;;;;5065795;28;20261;-71
2020/12/06 08:06:54;;;;;;;19.65;10.63;;;3.80;3.20;;;;;;5064569;28;20647;-73
2020/12/06 08:09:25;;;;;;;21.90;10.65;;;4.00;14.00;;;;;;5070378;28;20258;-73
2020/12/06 08:11:55;;;;;;;26.70;11.95;;;4.10;6.30;;;;;;5066649;28;20235;-74
2020/12/06 08:14:22;;;;;;;23.88;12.32;;;4.20;1.00;;;;;;5063440;28;20223;-73
2020/12/06 08:16:57;;;;;;;20.33;11.32;;;4.20;1.00;;;;;;5065315;28;20735;-73
2020/12/06 08:19:24;;;;;;;22.45;10.85;;;4.20;1.00;;;;;;5066381;28;20234;-73
2020/12/06 08:21:59;;;;;;;16.60;10.25;;;4.20;1.00;;;;;;5061219;28;20233;-73
2020/12/06 08:24:28;;;;;;;22.45;10.90;;;4.10;1.00;;;;;;5068230;28;20212;-73
2020/12/06 08:26:55;;;;;;;19.15;10.70;;;4.20;1.00;;;;;;5061825;28;20340;-74
2020/12/06 08:29:39;;;;;;;23.92;13.00;;;4.30;1.00;;;;;;5061317;28;20265;-74
2020/12/06 08:32:06;;;;;;;16.65;9.90;;;4.40;1.00;;;;;;5059487;28;21200;-73
2020/12/06 08:34:34;;;;;;;19.02;9.65;;;4.50;1.00;;;;;;5065433;28;20344;-72
2020/12/06 08:37:19;;;;;;;17.88;10.02;;;4.50;1.00;;;;;;5058268;28;20576;-73
2020/12/06 08:39:48;;;;;;;20.42;11.45;;;4.50;1.00;;;;;;5063996;28;20656;-74
2020/12/06 08:42:17;;;;;;;15.23;8.90;;;4.60;1.00;;;;;;5059867;28;20225;-69
2020/12/06 08:44:56;;;;;;;18.27;9.23;;;4.50;1.00;;;;;;5060416;28;20485;-72
2020/12/06 08:47:26;;;;;;;16.17;8.98;;;4.40;1.00;;;;;;5058690;28;20282;-71
2020/12/06 08:50:08;;;;;;;19.20;10.77;;;4.40;1.00;;;;;;5066073;28;20303;-72
2020/12/06 08:52:36;;;;;;;19.50;10.10;;;4.40;1.00;;;;;;5063670;28;20212;-72
2020/12/06 08:55:25;;;;;;;18.38;10.00;;;4.50;1.00;;;;;;5065259;28;20220;-71
2020/12/06 08:57:52;;;;;;;16.50;9.35;;;4.40;1.00;;;;;;5058337;28;20270;-72
2020/12/06 09:00:19;;;;;;;15.65;8.05;;;4.50;1.00;;;;;;5060569;28;20216;-71
2020/12/06 09:02:47;;;;;;;14.38;8.15;;;4.60;1.00;;;;;;5060588;28;20915;-72
2020/12/06 09:05:14;;;;;;;15.30;7.90;;;4.60;1.00;;;;;;5059503;28;20290;-73
2020/12/06 09:07:42;;;;;;;15.38;8.05;;;4.80;1.00;;;;;;5059950;28;20208;-72
2020/12/06 09:10:10;;;;;;;14.30;7.30;;;4.70;1.00;;;;;;5061139;28;20262;-71
2020/12/06 09:12:37;;;;;;;15.30;8.25;;;4.70;1.00;;;;;;5058843;28;20214;-73
2020/12/06 09:15:06;;;;;;;19.77;11.52;;;4.80;1.00;;;;;;5059199;28;20216;-74
2020/12/06 09:17:34;;;;;;;12.55;8.00;;;4.90;1.00;;;;;;5057233;28;20216;-74
2020/12/06 09:20:02;;;;;;;14.20;7.50;;;5.00;1.00;;;;;;5063040;28;20230;-75
2020/12/06 09:22:29;;;;;;;12.60;7.00;;;5.00;1.00;;;;;;5059327;28;20272;-76
2020/12/06 09:24:57;;;;;;;19.45;9.57;;;5.00;1.00;;;;;;5059136;28;20215;-72
2020/12/06 09:27:24;;;;;;;12.23;7.30;;;5.00;1.00;;;;;;5059996;28;20307;-75
2020/12/06 09:29:52;;;;;;;15.57;8.00;;;5.00;1.00;;;;;;5060181;28;20280;-73
2020/12/06 09:32:19;;;;;;;15.02;7.05;;;5.10;1.00;;;;;;5062690;28;20216;-74
2020/12/06 09:34:46;;;;;;;12.85;6.63;;;5.00;1.00;;;;;;5061444;28;20345;-75
2020/12/06 09:37:13;;;;;;;14.65;7.85;;;5.00;1.00;;;;;;5055702;28;20239;-75
2020/12/06 09:39:40;;;;;;;12.88;7.18;;;4.90;1.00;;;;;;5057099;28;20293;-77
2020/12/06 09:42:08;;;;;;;10.20;7.05;;;4.90;1.00;;;;;;5056891;28;20304;-74
2020/12/06 09:44:35;;;;;;;9.68;7.10;;;5.00;1.00;;;;;;5063623;28;20217;-74
2020/12/06 09:47:02;;;;;;;10.70;6.97;;;4.70;1.00;;;;;;5061327;28;20277;-75
2020/12/06 09:49:29;;;;;;;10.30;7.28;;;4.70;1.00;;;;;;5062955;28;20236;-74
2020/12/06 09:51:56;;;;;;;9.68;4.95;;;4.70;1.00;;;;;;5061841;28;20303;-74
2020/12/06 09:54:23;;;;;;;9.30;5.80;;;4.80;1.00;;;;;;5067161;28;20215;-75
2020/12/06 09:56:50;;;;;;;8.10;5.53;;;4.80;1.00;;;;;;5069802;28;20255;-74
2020/12/06 09:59:18;;;;;;;5.65;5.13;;;4.80;1.00;;;;;;5060641;28;20631;-75
2020/12/06 10:01:46;;;;;;;7.63;5.32;;;4.90;1.00;;;;;;5060690;28;20210;-73
2020/12/06 10:04:17;;;;;;;6.85;5.90;;;4.90;1.00;;;;;;5058969;28;20283;-75
2020/12/06 10:06:44;;;;;;;8.55;6.90;;;5.00;1.00;;;;;;5066528;28;20262;-75
2020/12/06 10:09:11;;;;;;;7.63;5.20;;;4.90;1.00;;;;;;5058837;28;20865;-74
2020/12/06 10:11:38;;;;;;;9.98;5.75;;;4.90;1.00;;;;;;5061164;28;20236;-73
2020/12/06 10:14:05;;;;;;;7.57;5.75;;;5.00;1.00;;;;;;5064309;28;20211;-72
2020/12/06 10:16:33;;;;;;;7.55;5.90;;;5.00;1.00;;;;;;5060643;28;20251;-73
2020/12/06 10:19:00;;;;;;;5.78;5.05;;;4.80;1.00;;;;;;5064662;28;20932;-72
2020/12/06 10:21:27;;;;;;;7.28;5.68;;;4.60;1.00;;;;;;5060768;28;20257;-73
2020/12/06 10:23:54;;;;;;;10.55;6.55;;;4.50;1.00;;;;;;5062790;28;20214;-72
2020/12/06 10:26:21;;;;;;;6.00;5.40;;;4.30;1.00;;;;;;5064050;28;20241;-73
2020/12/06 10:28:48;;;;;;;9.63;5.60;;;4.30;1.00;;;;;;5060287;28;20206;-76
2020/12/06 10:31:18;;;;;;;8.90;5.88;;;4.20;1.00;;;;;;5054186;28;20220;-73
2020/12/06 10:33:46;;;;;;;7.53;5.28;;;4.10;1.00;;;;;;5058452;28;20211;-75
2020/12/06 10:36:13;;;;;;;8.20;6.72;;;4.30;1.00;;;;;;5056936;28;20236;-72
2020/12/06 10:38:40;;;;;;;8.05;6.45;;;4.40;1.00;;;;;;5058814;28;20319;-76
2020/12/06 10:41:07;;;;;;;8.70;6.60;;;4.50;1.00;;;;;;5055012;28;20289;-75
2020/12/06 10:43:34;;;;;;;8.20;7.32;;;4.50;1.00;;;;;;5059786;28;20220;-75
2020/12/06 10:46:02;;;;;;;9.02;6.13;;;4.60;1.00;;;;;;5060593;28;20236;-74
2020/12/06 10:48:29;;;;;;;8.52;5.95;;;4.70;1.00;;;;;;5061562;28;20879;-74
2020/12/06 10:50:57;;;;;;;8.80;6.72;;;4.80;1.00;;;;;;5061338;28;20201;-75
2020/12/06 10:53:24;;;;;;;9.50;7.35;;;4.80;1.00;;;;;;5062518;28;20718;-75
2020/12/06 10:55:51;;;;;;;9.32;7.00;;;4.80;1.00;;;;;;5058941;28;20239;-75
2020/12/06 10:58:18;;;;;;;9.40;7.53;;;4.70;1.00;;;;;;5060683;28;20285;-77
2020/12/06 11:00:46;;;;;;;9.35;6.18;;;4.80;1.00;;;;;;5055332;28;20293;-76
2020/12/06 11:03:14;;;;;;;9.20;7.13;;;4.90;1.00;;;;;;5054801;28;20248;-77
2020/12/06 11:05:41;;;;;;;10.95;7.22;;;4.90;1.00;;;;;;5059788;28;20366;-76
2020/12/06 11:08:09;;;;;;;10.10;7.10;;;4.90;1.00;;;;;;5052872;28;20469;-75
2020/12/06 11:10:36;;;;;;;11.85;9.18;;;5.10;1.00;;;;;;5059901;28;20217;-76
2020/12/06 11:13:03;;;;;;;8.77;6.97;;;5.20;1.00;;;;;;5057839;28;21736;-76
2020/12/06 11:15:30;;;;;;;9.93;7.28;;;5.10;1.00;;;;;;5058406;28;20239;-76
2020/12/06 11:18:08;;;;;;;7.78;6.97;;;5.10;1.00;;;;;;5054834;28;20750;-76
2020/12/06 11:20:35;;;;;;;8.20;6.80;;;5.20;1.00;;;;;;5060536;28;20952;-80
2020/12/06 11:23:03;;;;;;;10.95;7.82;;;5.30;1.00;;;;;;5060831;28;20217;-75
2020/12/06 11:25:31;;;;;;;13.63;7.97;;;5.30;1.00;;;;;;5060408;28;20229;-75
2020/12/06 11:27:58;;;;;;;10.82;7.85;;;5.30;1.00;;;;;;5064634;28;20215;-74
2020/12/06 11:30:25;;;;;;;9.88;6.68;;;5.40;1.00;;;;;;5057960;28;20225;-74
2020/12/06 11:32:53;;;;;;;7.10;5.30;;;5.50;1.00;;;;;;5053699;28;20210;-73
2020/12/06 11:35:20;;;;;;;9.00;5.43;;;5.50;1.00;;;;;;5058021;28;20234;-73
2020/12/06 11:37:47;;;;;;;7.55;6.15;;;5.30;1.00;;;;;;5051605;28;20218;-75
2020/12/06 11:40:14;;;;;;;7.72;6.30;;;5.40;1.00;;;;;;5053456;28;20232;-75
2020/12/06 11:42:42;;;;;;;8.50;6.57;;;5.40;1.00;;;;;;5054807;28;20217;-76
2020/12/06 11:45:10;;;;;;;7.77;6.97;;;5.40;1.00;;;;;;5065252;28;20632;-74
2020/12/06 11:47:37;;;;;;;5.55;4.72;;;5.40;1.00;;;;;;5055985;28;20470;-75
2020/12/06 11:50:05;;;;;;;5.68;5.05;;;5.40;1.00;;;;;;5055015;28;20215;-75
2020/12/06 11:52:32;;;;;;;7.35;5.80;;;5.50;1.00;;;;;;5053078;28;20315;-74
2020/12/06 11:54:59;;;;;;;5.95;4.97;;;5.50;1.00;;;;;;5055938;28;20206;-74
2020/12/06 11:57:26;;;;;;;6.90;5.32;;;5.30;1.00;;;;;;5054892;28;22040;-75
2020/12/06 11:59:54;;;;;;;5.53;4.68;;;5.20;1.00;;;;;;5057559;28;20225;-75
2020/12/06 12:02:22;;;;;;;7.88;5.07;;;5.30;1.00;;;;;;5059865;28;20217;-74
2020/12/06 12:04:50;;;;;;;6.00;5.40;;;5.40;1.00;;;;;;5062999;28;20211;-75
2020/12/06 12:07:18;;;;;;;6.50;4.82;;;5.50;1.00;;;;;;5057074;28;20239;-75
2020/12/06 12:09:46;;;;;;;5.25;4.82;;;5.50;1.00;;;;;;5064614;28;20527;-75
2020/12/06 12:12:13;;;;;;;6.82;5.30;;;5.50;1.00;;;;;;5062668;28;20211;-75
2020/12/06 12:14:40;;;;;;;5.20;4.72;;;5.70;1.00;;;;;;5059814;28;20220;-74
2020/12/06 12:17:08;;;;;;;5.35;4.47;;;5.60;99.90;;;;;;5050501;28;20280;-74
2020/12/06 12:19:35;;;;;;;4.82;4.35;;;5.60;99.90;;;;;;5058979;28;20810;-75
2020/12/06 12:22:02;;;;;;;5.75;4.82;;;5.50;99.90;;;;;;5060930;28;20261;-75
2020/12/06 12:24:30;;;;;;;4.75;4.35;;;5.30;99.90;;;;;;5064409;28;20225;-75
2020/12/06 12:26:58;;;;;;;9.70;6.05;;;5.40;99.90;;;;;;5062551;28;20627;-76
2020/12/06 12:29:26;;;;;;;5.22;4.72;;;5.70;99.90;;;;;;5065492;28;20284;-75
2020/12/06 12:31:53;;;;;;;5.65;4.40;;;5.90;99.90;;;;;;5054320;28;20240;-75
2020/12/06 12:34:21;;;;;;;6.30;5.30;;;5.80;41.70;;;;;;5061284;28;20306;-74
2020/12/06 12:36:49;;;;;;;5.23;4.53;;;5.90;1.00;;;;;;5061438;28;20241;-75
2020/12/06 12:39:16;;;;;;;5.43;4.90;;;5.90;1.00;;;;;;5058214;28;20834;-75
2020/12/06 12:41:44;;;;;;;5.78;4.63;;;6.00;1.00;;;;;;5062503;28;20221;-75
2020/12/06 12:44:11;;;;;;;4.43;4.03;;;6.10;1.00;;;;;;5065528;28;20245;-75
2020/12/06 12:46:38;;;;;;;4.70;4.30;;;6.20;1.00;;;;;;5060633;28;20262;-75
2020/12/06 12:49:05;;;;;;;4.40;4.00;;;6.30;1.00;;;;;;5059016;28;20264;-76
2020/12/06 12:51:33;;;;;;;4.63;4.22;;;6.30;1.00;;;;;;5061728;28;20228;-75
2020/12/06 12:54:01;;;;;;;5.13;4.68;;;6.30;99.90;;;;;;5061229;28;20867;-75
2020/12/06 12:56:30;;;;;;;5.63;4.57;;;6.40;99.90;;;;;;5060261;28;20283;-75
2020/12/06 12:58:57;;;;;;;5.20;4.72;;;6.50;99.90;;;;;;5063511;28;20712;-71